sensor_id;sensor_type;location;lat;lon;timestamp;P1;durP1;ratioP1;P2;durP2;ratioP2
38811;SDS011;24553;51.640;-0.752;2023-02-28T00:00:38;2.45;;;0.70;;
38811;SDS011;24553;51.640;-0.752;2023-02-28T00:03:03;2.10;;;0.80;;
38811;SDS011;24553;51.640;-0.752;2023-02-28T00:05:29;1.75;;;1.10;;
38811;SDS011;24553;51.640;-0.752;2023-02-28T00:07:54;4.65;;;0.80;;
38811;SDS011;24553;51.640;-0.752;2023-02-28T00:10:25;3.35;;;0.80;;
38811;SDS011;24553;51.640;-0.752;2023-02-28T00:12:52;2.55;;;1.00;;
38811;SDS011;24553;51.640;-0.752;2023-02-28T00:15:22;1.38;;;0.77;;
38811;SDS011;24553;51.640;-0.752;2023-02-28T00:17:48;3.78;;;0.90;;
38811;SDS011;24553;51.640;-0.752;2023-02-28T00:20:13;2.47;;;0.55;;
38811;SDS011;24553;51.640;-0.752;2023-02-28T00:22:41;1.30;;;1.15;;
38811;SDS011;24553;51.640;-0.752;2023-02-28T00:25:10;3.38;;;0.52;;
38811;SDS011;24553;51.640;-0.752;2023-02-28T00:27:37;3.13;;;0.98;;
38811;SDS011;24553;51.640;-0.752;2023-02-28T00:30:03;1.88;;;0.57;;
38811;SDS011;24553;51.640;-0.752;2023-02-28T00:32:30;1.20;;;0.47;;
38811;SDS011;24553;51.640;-0.752;2023-02-28T00:34:55;0.63;;;0.45;;
38811;SDS011;24553;51.640;-0.752;2023-02-28T00:37:21;1.90;;;0.70;;
38811;SDS011;24553;51.640;-0.752;2023-02-28T00:39:47;1.20;;;0.35;;
38811;SDS011;24553;51.640;-0.752;2023-02-28T00:42:12;5.55;;;0.63;;
38811;SDS011;24553;51.640;-0.752;2023-02-28T00:44:38;2.13;;;1.17;;
38811;SDS011;24553;51.640;-0.752;2023-02-28T00:47:03;3.13;;;0.43;;
38811;SDS011;24553;51.640;-0.752;2023-02-28T00:49:29;3.17;;;0.40;;
38811;SDS011;24553;51.640;-0.752;2023-02-28T00:51:54;4.68;;;0.57;;
38811;SDS011;24553;51.640;-0.752;2023-02-28T00:54:21;5.65;;;0.88;;
38811;SDS011;24553;51.640;-0.752;2023-02-28T00:56:47;4.43;;;0.50;;
38811;SDS011;24553;51.640;-0.752;2023-02-28T00:59:13;9.95;;;0.43;;
38811;SDS011;24553;51.640;-0.752;2023-02-28T01:01:40;2.25;;;0.30;;
38811;SDS011;24553;51.640;-0.752;2023-02-28T01:04:06;1.10;;;0.25;;
38811;SDS011;24553;51.640;-0.752;2023-02-28T01:06:32;1.77;;;1.55;;
38811;SDS011;24553;51.640;-0.752;2023-02-28T01:08:58;4.85;;;0.63;;
38811;SDS011;24553;51.640;-0.752;2023-02-28T01:11:24;2.85;;;0.70;;
38811;SDS011;24553;51.640;-0.752;2023-02-28T01:13:49;3.25;;;0.40;;
38811;SDS011;24553;51.640;-0.752;2023-02-28T01:16:15;1.45;;;0.50;;
38811;SDS011;24553;51.640;-0.752;2023-02-28T01:18:41;1.67;;;0.52;;
38811;SDS011;24553;51.640;-0.752;2023-02-28T01:21:07;4.13;;;0.30;;
38811;SDS011;24553;51.640;-0.752;2023-02-28T01:23:34;5.88;;;0.40;;
38811;SDS011;24553;51.640;-0.752;2023-02-28T01:26:04;3.13;;;0.60;;
38811;SDS011;24553;51.640;-0.752;2023-02-28T01:28:30;3.15;;;0.47;;
38811;SDS011;24553;51.640;-0.752;2023-02-28T01:30:56;3.22;;;0.55;;
38811;SDS011;24553;51.640;-0.752;2023-02-28T01:33:21;2.75;;;0.98;;
38811;SDS011;24553;51.640;-0.752;2023-02-28T01:35:46;0.98;;;0.10;;
38811;SDS011;24553;51.640;-0.752;2023-02-28T01:38:12;6.35;;;0.50;;
38811;SDS011;24553;51.640;-0.752;2023-02-28T01:40:37;0.50;;;0.20;;
38811;SDS011;24553;51.640;-0.752;2023-02-28T01:43:02;0.43;;;0.10;;
38811;SDS011;24553;51.640;-0.752;2023-02-28T01:45:30;2.58;;;0.20;;
38811;SDS011;24553;51.640;-0.752;2023-02-28T01:48:04;1.58;;;0.57;;
38811;SDS011;24553;51.640;-0.752;2023-02-28T01:50:34;1.10;;;0.50;;
38811;SDS011;24553;51.640;-0.752;2023-02-28T01:53:04;7.82;;;0.30;;
38811;SDS011;24553;51.640;-0.752;2023-02-28T01:55:33;1.70;;;0.28;;
38811;SDS011;24553;51.640;-0.752;2023-02-28T01:58:00;2.13;;;0.22;;
38811;SDS011;24553;51.640;-0.752;2023-02-28T02:00:29;1.60;;;0.50;;
38811;SDS011;24553;51.640;-0.752;2023-02-28T02:02:57;1.65;;;0.70;;
38811;SDS011;24553;51.640;-0.752;2023-02-28T02:05:26;2.13;;;0.30;;
38811;SDS011;24553;51.640;-0.752;2023-02-28T02:08:03;4.68;;;0.95;;
38811;SDS011;24553;51.640;-0.752;2023-02-28T02:13:15;1.90;;;0.32;;
38811;SDS011;24553;51.640;-0.752;2023-02-28T02:16:03;2.53;;;0.32;;
38811;SDS011;24553;51.640;-0.752;2023-02-28T02:18:49;2.75;;;0.25;;
38811;SDS011;24553;51.640;-0.752;2023-02-28T02:33:03;3.83;;;0.52;;
38811;SDS011;24553;51.640;-0.752;2023-02-28T02:41:45;0.50;;;0.20;;
38811;SDS011;24553;51.640;-0.752;2023-02-28T02:44:33;2.72;;;1.38;;
38811;SDS011;24553;51.640;-0.752;2023-02-28T02:47:07;4.68;;;0.57;;
38811;SDS011;24553;51.640;-0.752;2023-02-28T02:49:36;0.47;;;0.20;;
38811;SDS011;24553;51.640;-0.752;2023-02-28T02:52:06;0.45;;;0.45;;
38811;SDS011;24553;51.640;-0.752;2023-02-28T02:54:36;1.17;;;0.15;;
38811;SDS011;24553;51.640;-0.752;2023-02-28T02:57:13;3.63;;;0.20;;
38811;SDS011;24553;51.640;-0.752;2023-02-28T02:59:49;1.25;;;0.40;;
38811;SDS011;24553;51.640;-0.752;2023-02-28T03:02:18;6.38;;;0.30;;
38811;SDS011;24553;51.640;-0.752;2023-02-28T03:04:47;1.67;;;0.50;;
38811;SDS011;24553;51.640;-0.752;2023-02-28T03:07:16;5.18;;;0.45;;
38811;SDS011;24553;51.640;-0.752;2023-02-28T03:09:49;1.20;;;0.22;;
38811;SDS011;24553;51.640;-0.752;2023-02-28T03:12:16;2.45;;;0.80;;
38811;SDS011;24553;51.640;-0.752;2023-02-28T03:20:25;5.18;;;0.28;;
38811;SDS011;24553;51.640;-0.752;2023-02-28T03:25:22;0.90;;;0.25;;
38811;SDS011;24553;51.640;-0.752;2023-02-28T03:30:33;0.98;;;0.28;;
38811;SDS011;24553;51.640;-0.752;2023-02-28T03:33:08;0.30;;;0.30;;
38811;SDS011;24553;51.640;-0.752;2023-02-28T03:36:12;3.60;;;0.85;;
38811;SDS011;24553;51.640;-0.752;2023-02-28T03:41:17;2.38;;;0.20;;
38811;SDS011;24553;51.640;-0.752;2023-02-28T03:43:48;0.40;;;0.30;;
38811;SDS011;24553;51.640;-0.752;2023-02-28T03:46:41;8.27;;;0.98;;
38811;SDS011;24553;51.640;-0.752;2023-02-28T03:49:23;2.92;;;0.30;;
38811;SDS011;24553;51.640;-0.752;2023-02-28T03:51:52;0.95;;;0.20;;
38811;SDS011;24553;51.640;-0.752;2023-02-28T03:54:27;2.55;;;0.47;;
38811;SDS011;24553;51.640;-0.752;2023-02-28T03:56:58;3.35;;;0.60;;
38811;SDS011;24553;51.640;-0.752;2023-02-28T03:59:37;1.08;;;0.10;;
38811;SDS011;24553;51.640;-0.752;2023-02-28T04:02:06;2.42;;;0.10;;
38811;SDS011;24553;51.640;-0.752;2023-02-28T04:04:32;0.63;;;0.32;;
38811;SDS011;24553;51.640;-0.752;2023-02-28T04:07:03;0.45;;;0.25;;
38811;SDS011;24553;51.640;-0.752;2023-02-28T04:09:32;0.90;;;0.47;;
38811;SDS011;24553;51.640;-0.752;2023-02-28T04:11:58;2.90;;;0.50;;
38811;SDS011;24553;51.640;-0.752;2023-02-28T04:14:24;2.42;;;0.75;;
38811;SDS011;24553;51.640;-0.752;2023-02-28T04:16:49;4.72;;;0.75;;
38811;SDS011;24553;51.640;-0.752;2023-02-28T04:19:16;3.25;;;0.98;;
38811;SDS011;24553;51.640;-0.752;2023-02-28T04:21:43;2.13;;;0.32;;
38811;SDS011;24553;51.640;-0.752;2023-02-28T04:24:11;1.92;;;0.80;;
38811;SDS011;24553;51.640;-0.752;2023-02-28T04:26:39;2.50;;;0.30;;
38811;SDS011;24553;51.640;-0.752;2023-02-28T04:29:08;3.53;;;0.38;;
38811;SDS011;24553;51.640;-0.752;2023-02-28T04:31:34;1.27;;;0.60;;
38811;SDS011;24553;51.640;-0.752;2023-02-28T04:34:00;2.00;;;0.47;;
38811;SDS011;24553;51.640;-0.752;2023-02-28T04:36:26;1.85;;;0.82;;
38811;SDS011;24553;51.640;-0.752;2023-02-28T04:38:52;0.57;;;0.35;;
38811;SDS011;24553;51.640;-0.752;2023-02-28T04:41:17;2.55;;;0.77;;
38811;SDS011;24553;51.640;-0.752;2023-02-28T04:43:43;2.08;;;0.50;;
38811;SDS011;24553;51.640;-0.752;2023-02-28T04:46:08;1.10;;;0.80;;
38811;SDS011;24553;51.640;-0.752;2023-02-28T04:48:35;2.15;;;1.65;;
38811;SDS011;24553;51.640;-0.752;2023-02-28T04:51:06;2.55;;;1.13;;
38811;SDS011;24553;51.640;-0.752;2023-02-28T04:53:33;4.68;;;0.30;;
38811;SDS011;24553;51.640;-0.752;2023-02-28T04:56:00;3.78;;;0.77;;
38811;SDS011;24553;51.640;-0.752;2023-02-28T04:58:26;1.50;;;1.20;;
38811;SDS011;24553;51.640;-0.752;2023-02-28T05:00:53;0.85;;;0.55;;
38811;SDS011;24553;51.640;-0.752;2023-02-28T05:03:19;0.65;;;0.40;;
38811;SDS011;24553;51.640;-0.752;2023-02-28T05:05:45;4.70;;;0.60;;
38811;SDS011;24553;51.640;-0.752;2023-02-28T05:08:11;0.60;;;0.60;;
38811;SDS011;24553;51.640;-0.752;2023-02-28T05:10:37;1.33;;;0.63;;
38811;SDS011;24553;51.640;-0.752;2023-02-28T05:13:02;0.80;;;0.63;;
38811;SDS011;24553;51.640;-0.752;2023-02-28T05:15:27;6.03;;;1.05;;
38811;SDS011;24553;51.640;-0.752;2023-02-28T05:17:53;0.90;;;0.32;;
38811;SDS011;24553;51.640;-0.752;2023-02-28T05:20:19;0.93;;;0.68;;
38811;SDS011;24553;51.640;-0.752;2023-02-28T05:22:45;5.40;;;0.63;;
38811;SDS011;24553;51.640;-0.752;2023-02-28T05:25:16;1.30;;;0.65;;
38811;SDS011;24553;51.640;-0.752;2023-02-28T05:27:44;4.53;;;0.77;;
38811;SDS011;24553;51.640;-0.752;2023-02-28T05:30:09;1.38;;;0.43;;
38811;SDS011;24553;51.640;-0.752;2023-02-28T05:32:36;2.90;;;0.82;;
38811;SDS011;24553;51.640;-0.752;2023-02-28T05:35:02;2.63;;;0.88;;
38811;SDS011;24553;51.640;-0.752;2023-02-28T05:37:28;1.70;;;0.80;;
38811;SDS011;24553;51.640;-0.752;2023-02-28T05:39:53;4.82;;;1.20;;
38811;SDS011;24553;51.640;-0.752;2023-02-28T05:42:19;1.15;;;0.50;;
38811;SDS011;24553;51.640;-0.752;2023-02-28T05:44:44;3.72;;;0.50;;
38811;SDS011;24553;51.640;-0.752;2023-02-28T05:47:10;1.13;;;0.32;;
38811;SDS011;24553;51.640;-0.752;2023-02-28T05:49:35;2.92;;;1.02;;
38811;SDS011;24553;51.640;-0.752;2023-02-28T05:52:00;2.03;;;0.47;;
38811;SDS011;24553;51.640;-0.752;2023-02-28T05:54:26;0.82;;;0.63;;
38811;SDS011;24553;51.640;-0.752;2023-02-28T05:56:51;1.17;;;0.52;;
38811;SDS011;24553;51.640;-0.752;2023-02-28T05:59:16;2.92;;;0.65;;
38811;SDS011;24553;51.640;-0.752;2023-02-28T06:01:42;1.83;;;0.70;;
38811;SDS011;24553;51.640;-0.752;2023-02-28T06:04:13;2.25;;;0.85;;
38811;SDS011;24553;51.640;-0.752;2023-02-28T06:06:43;9.13;;;0.88;;
38811;SDS011;24553;51.640;-0.752;2023-02-28T06:09:09;4.97;;;1.38;;
38811;SDS011;24553;51.640;-0.752;2023-02-28T06:11:35;3.28;;;1.17;;
38811;SDS011;24553;51.640;-0.752;2023-02-28T06:14:00;3.55;;;1.15;;
38811;SDS011;24553;51.640;-0.752;2023-02-28T06:16:27;1.42;;;0.90;;
38811;SDS011;24553;51.640;-0.752;2023-02-28T06:18:53;3.03;;;1.30;;
38811;SDS011;24553;51.640;-0.752;2023-02-28T06:21:20;6.03;;;1.17;;
38811;SDS011;24553;51.640;-0.752;2023-02-28T06:23:46;1.70;;;0.65;;
38811;SDS011;24553;51.640;-0.752;2023-02-28T06:26:12;11.10;;;1.58;;
38811;SDS011;24553;51.640;-0.752;2023-02-28T06:28:37;4.75;;;1.38;;
38811;SDS011;24553;51.640;-0.752;2023-02-28T06:31:07;4.70;;;1.52;;
38811;SDS011;24553;51.640;-0.752;2023-02-28T06:33:34;3.33;;;1.90;;
38811;SDS011;24553;51.640;-0.752;2023-02-28T06:35:59;3.85;;;1.90;;
38811;SDS011;24553;51.640;-0.752;2023-02-28T06:38:24;1.50;;;1.00;;
38811;SDS011;24553;51.640;-0.752;2023-02-28T06:40:56;2.03;;;1.10;;
38811;SDS011;24553;51.640;-0.752;2023-02-28T06:43:24;7.85;;;1.40;;
38811;SDS011;24553;51.640;-0.752;2023-02-28T06:45:54;6.28;;;1.90;;
38811;SDS011;24553;51.640;-0.752;2023-02-28T06:48:20;5.40;;;1.50;;
38811;SDS011;24553;51.640;-0.752;2023-02-28T06:50:45;2.78;;;2.22;;
38811;SDS011;24553;51.640;-0.752;2023-02-28T06:53:11;8.80;;;1.90;;
38811;SDS011;24553;51.640;-0.752;2023-02-28T06:55:37;6.57;;;2.33;;
38811;SDS011;24553;51.640;-0.752;2023-02-28T06:58:03;4.72;;;2.35;;
38811;SDS011;24553;51.640;-0.752;2023-02-28T07:00:38;4.35;;;2.20;;
38811;SDS011;24553;51.640;-0.752;2023-02-28T07:03:03;6.18;;;2.90;;
38811;SDS011;24553;51.640;-0.752;2023-02-28T07:05:29;8.95;;;2.35;;
38811;SDS011;24553;51.640;-0.752;2023-02-28T07:07:54;3.67;;;1.52;;
38811;SDS011;24553;51.640;-0.752;2023-02-28T07:10:19;6.68;;;2.42;;
38811;SDS011;24553;51.640;-0.752;2023-02-28T07:12:45;3.67;;;1.58;;
38811;SDS011;24553;51.640;-0.752;2023-02-28T07:15:10;5.68;;;2.17;;
38811;SDS011;24553;51.640;-0.752;2023-02-28T07:17:36;4.88;;;2.38;;
38811;SDS011;24553;51.640;-0.752;2023-02-28T07:20:01;6.85;;;2.15;;
38811;SDS011;24553;51.640;-0.752;2023-02-28T07:22:29;7.40;;;3.90;;
38811;SDS011;24553;51.640;-0.752;2023-02-28T07:24:54;12.63;;;4.65;;
38811;SDS011;24553;51.640;-0.752;2023-02-28T07:27:20;6.00;;;2.92;;
38811;SDS011;24553;51.640;-0.752;2023-02-28T07:29:50;8.37;;;2.87;;
38811;SDS011;24553;51.640;-0.752;2023-02-28T07:32:17;7.30;;;3.00;;
38811;SDS011;24553;51.640;-0.752;2023-02-28T07:34:43;4.50;;;1.83;;
38811;SDS011;24553;51.640;-0.752;2023-02-28T07:37:09;6.40;;;2.50;;
38811;SDS011;24553;51.640;-0.752;2023-02-28T07:39:34;8.68;;;3.53;;
38811;SDS011;24553;51.640;-0.752;2023-02-28T07:41:59;10.90;;;4.13;;
38811;SDS011;24553;51.640;-0.752;2023-02-28T07:44:25;9.65;;;4.00;;
38811;SDS011;24553;51.640;-0.752;2023-02-28T07:46:51;9.23;;;3.38;;
38811;SDS011;24553;51.640;-0.752;2023-02-28T07:49:17;6.45;;;2.50;;
38811;SDS011;24553;51.640;-0.752;2023-02-28T07:51:43;8.57;;;3.00;;
38811;SDS011;24553;51.640;-0.752;2023-02-28T07:54:08;10.77;;;3.83;;
38811;SDS011;24553;51.640;-0.752;2023-02-28T07:56:33;7.85;;;3.67;;
38811;SDS011;24553;51.640;-0.752;2023-02-28T07:58:59;7.60;;;2.83;;
38811;SDS011;24553;51.640;-0.752;2023-02-28T08:01:24;7.90;;;3.28;;
38811;SDS011;24553;51.640;-0.752;2023-02-28T08:03:50;4.40;;;1.83;;
38811;SDS011;24553;51.640;-0.752;2023-02-28T08:06:19;6.63;;;3.15;;
38811;SDS011;24553;51.640;-0.752;2023-02-28T08:11:12;6.15;;;1.77;;
38811;SDS011;24553;51.640;-0.752;2023-02-28T08:13:37;5.68;;;2.55;;
38811;SDS011;24553;51.640;-0.752;2023-02-28T08:16:03;3.42;;;1.63;;
38811;SDS011;24553;51.640;-0.752;2023-02-28T08:18:28;4.70;;;1.35;;
38811;SDS011;24553;51.640;-0.752;2023-02-28T08:20:54;2.42;;;1.55;;
38811;SDS011;24553;51.640;-0.752;2023-02-28T08:23:19;4.03;;;2.08;;
38811;SDS011;24553;51.640;-0.752;2023-02-28T08:25:44;3.88;;;2.00;;
38811;SDS011;24553;51.640;-0.752;2023-02-28T08:28:17;2.38;;;1.40;;
38811;SDS011;24553;51.640;-0.752;2023-02-28T08:30:42;4.35;;;2.10;;
38811;SDS011;24553;51.640;-0.752;2023-02-28T08:33:08;5.28;;;2.80;;
38811;SDS011;24553;51.640;-0.752;2023-02-28T08:35:34;2.55;;;1.88;;
38811;SDS011;24553;51.640;-0.752;2023-02-28T08:38:01;3.05;;;2.25;;
38811;SDS011;24553;51.640;-0.752;2023-02-28T08:40:26;4.85;;;2.65;;
38811;SDS011;24553;51.640;-0.752;2023-02-28T08:42:51;3.90;;;2.17;;
38811;SDS011;24553;51.640;-0.752;2023-02-28T08:45:16;3.80;;;1.80;;
38811;SDS011;24553;51.640;-0.752;2023-02-28T08:47:42;2.75;;;1.63;;
38811;SDS011;24553;51.640;-0.752;2023-02-28T08:50:07;3.08;;;1.42;;
38811;SDS011;24553;51.640;-0.752;2023-02-28T08:52:33;3.70;;;1.38;;
38811;SDS011;24553;51.640;-0.752;2023-02-28T08:54:58;2.35;;;1.83;;
38811;SDS011;24553;51.640;-0.752;2023-02-28T08:57:24;1.85;;;1.40;;
38811;SDS011;24553;51.640;-0.752;2023-02-28T08:59:52;4.47;;;1.40;;
38811;SDS011;24553;51.640;-0.752;2023-02-28T09:02:18;1.83;;;0.77;;
38811;SDS011;24553;51.640;-0.752;2023-02-28T09:04:43;1.83;;;1.25;;
38811;SDS011;24553;51.640;-0.752;2023-02-28T09:07:12;1.58;;;0.75;;
38811;SDS011;24553;51.640;-0.752;2023-02-28T09:09:37;0.90;;;0.47;;
38811;SDS011;24553;51.640;-0.752;2023-02-28T09:12:28;0.55;;;0.52;;
38811;SDS011;24553;51.640;-0.752;2023-02-28T09:15:00;1.00;;;0.73;;
38811;SDS011;24553;51.640;-0.752;2023-02-28T09:17:26;1.33;;;1.00;;
38811;SDS011;24553;51.640;-0.752;2023-02-28T09:19:51;2.03;;;0.50;;
38811;SDS011;24553;51.640;-0.752;2023-02-28T09:22:16;2.38;;;1.13;;
38811;SDS011;24553;51.640;-0.752;2023-02-28T09:24:42;1.50;;;0.70;;
38811;SDS011;24553;51.640;-0.752;2023-02-28T09:27:07;0.82;;;0.82;;
38811;SDS011;24553;51.640;-0.752;2023-02-28T09:29:33;1.13;;;1.02;;
38811;SDS011;24553;51.640;-0.752;2023-02-28T09:31:59;1.38;;;0.90;;
38811;SDS011;24553;51.640;-0.752;2023-02-28T09:34:25;0.43;;;0.43;;
38811;SDS011;24553;51.640;-0.752;2023-02-28T09:36:51;0.45;;;0.25;;
38811;SDS011;24553;51.640;-0.752;2023-02-28T09:39:20;1.13;;;0.68;;
38811;SDS011;24553;51.640;-0.752;2023-02-28T09:41:47;1.75;;;1.52;;
38811;SDS011;24553;51.640;-0.752;2023-02-28T09:44:20;0.95;;;0.57;;
38811;SDS011;24553;51.640;-0.752;2023-02-28T09:46:59;0.50;;;0.30;;
38811;SDS011;24553;51.640;-0.752;2023-02-28T09:49:42;0.25;;;0.25;;
38811;SDS011;24553;51.640;-0.752;2023-02-28T09:52:15;0.30;;;0.30;;
38811;SDS011;24553;51.640;-0.752;2023-02-28T09:54:44;0.73;;;0.60;;
38811;SDS011;24553;51.640;-0.752;2023-02-28T09:57:19;0.40;;;0.38;;
38811;SDS011;24553;51.640;-0.752;2023-02-28T10:03:06;1.85;;;0.47;;
38811;SDS011;24553;51.640;-0.752;2023-02-28T10:11:07;0.75;;;0.47;;
38811;SDS011;24553;51.640;-0.752;2023-02-28T10:13:45;0.88;;;0.60;;
38811;SDS011;24553;51.640;-0.752;2023-02-28T10:16:20;1.23;;;0.82;;
38811;SDS011;24553;51.640;-0.752;2023-02-28T10:18:49;0.63;;;0.38;;
38811;SDS011;24553;51.640;-0.752;2023-02-28T10:21:59;0.93;;;0.43;;
38811;SDS011;24553;51.640;-0.752;2023-02-28T10:24:35;0.65;;;0.50;;
38811;SDS011;24553;51.640;-0.752;2023-02-28T10:29:49;0.20;;;0.20;;
38811;SDS011;24553;51.640;-0.752;2023-02-28T10:32:18;0.75;;;0.75;;
38811;SDS011;24553;51.640;-0.752;2023-02-28T10:35:15;0.50;;;0.32;;
38811;SDS011;24553;51.640;-0.752;2023-02-28T10:37:59;0.38;;;0.28;;
38811;SDS011;24553;51.640;-0.752;2023-02-28T10:40:33;0.50;;;0.20;;
38811;SDS011;24553;51.640;-0.752;2023-02-28T10:45:37;0.63;;;0.30;;
38811;SDS011;24553;51.640;-0.752;2023-02-28T10:48:04;1.20;;;0.38;;
38811;SDS011;24553;51.640;-0.752;2023-02-28T11:01:13;1.15;;;0.38;;
38811;SDS011;24553;51.640;-0.752;2023-02-28T11:03:41;0.10;;;0.00;;
38811;SDS011;24553;51.640;-0.752;2023-02-28T11:06:07;0.98;;;0.13;;
38811;SDS011;24553;51.640;-0.752;2023-02-28T11:08:44;0.10;;;0.10;;
38811;SDS011;24553;51.640;-0.752;2023-02-28T11:11:14;0.03;;;0.03;;
38811;SDS011;24553;51.640;-0.752;2023-02-28T11:13:41;0.25;;;0.10;;
38811;SDS011;24553;51.640;-0.752;2023-02-28T11:16:09;0.68;;;0.40;;
38811;SDS011;24553;51.640;-0.752;2023-02-28T11:18:39;10.73;;;1.45;;
38811;SDS011;24553;51.640;-0.752;2023-02-28T11:21:07;0.10;;;0.00;;
38811;SDS011;24553;51.640;-0.752;2023-02-28T11:23:35;0.45;;;0.00;;
38811;SDS011;24553;51.640;-0.752;2023-02-28T11:26:02;0.00;;;0.00;;
38811;SDS011;24553;51.640;-0.752;2023-02-28T11:28:33;0.20;;;0.03;;
38811;SDS011;24553;51.640;-0.752;2023-02-28T11:33:31;0.40;;;0.00;;
38811;SDS011;24553;51.640;-0.752;2023-02-28T11:36:09;0.05;;;0.00;;
38811;SDS011;24553;51.640;-0.752;2023-02-28T11:38:40;0.30;;;0.00;;
38811;SDS011;24553;51.640;-0.752;2023-02-28T11:46:54;1.42;;;0.00;;
38811;SDS011;24553;51.640;-0.752;2023-02-28T11:49:35;0.20;;;0.00;;
38811;SDS011;24553;51.640;-0.752;2023-02-28T12:00:32;1.55;;;0.22;;
38811;SDS011;24553;51.640;-0.752;2023-02-28T12:26:45;0.35;;;0.00;;
38811;SDS011;24553;51.640;-0.752;2023-02-28T12:34:32;0.00;;;0.00;;
38811;SDS011;24553;51.640;-0.752;2023-02-28T12:37:03;0.00;;;0.00;;
38811;SDS011;24553;51.640;-0.752;2023-02-28T12:39:34;3.35;;;0.10;;
38811;SDS011;24553;51.640;-0.752;2023-02-28T12:42:11;0.10;;;0.10;;
38811;SDS011;24553;51.640;-0.752;2023-02-28T12:47:29;0.20;;;0.08;;
38811;SDS011;24553;51.640;-0.752;2023-02-28T12:49:58;0.45;;;0.00;;
38811;SDS011;24553;51.640;-0.752;2023-02-28T12:55:29;0.50;;;0.20;;
38811;SDS011;24553;51.640;-0.752;2023-02-28T13:09:26;0.85;;;0.10;;
38811;SDS011;24553;51.640;-0.752;2023-02-28T13:11:52;3.53;;;0.25;;
38811;SDS011;24553;51.640;-0.752;2023-02-28T13:14:26;2.05;;;0.20;;
38811;SDS011;24553;51.640;-0.752;2023-02-28T13:16:57;0.20;;;0.10;;
38811;SDS011;24553;51.640;-0.752;2023-02-28T13:19:27;0.10;;;0.00;;
38811;SDS011;24553;51.640;-0.752;2023-02-28T13:22:00;0.32;;;0.10;;
38811;SDS011;24553;51.640;-0.752;2023-02-28T13:24:37;0.15;;;0.10;;
38811;SDS011;24553;51.640;-0.752;2023-02-28T13:29:56;0.30;;;0.13;;
38811;SDS011;24553;51.640;-0.752;2023-02-28T13:42:33;0.32;;;0.20;;
38811;SDS011;24553;51.640;-0.752;2023-02-28T13:57:59;0.63;;;0.10;;
38811;SDS011;24553;51.640;-0.752;2023-02-28T14:00:33;0.10;;;0.05;;
38811;SDS011;24553;51.640;-0.752;2023-02-28T14:06:08;0.22;;;0.03;;
38811;SDS011;24553;51.640;-0.752;2023-02-28T14:08:35;0.35;;;0.10;;
38811;SDS011;24553;51.640;-0.752;2023-02-28T14:11:08;5.00;;;0.10;;
38811;SDS011;24553;51.640;-0.752;2023-02-28T14:13:50;1.33;;;0.20;;
38811;SDS011;24553;51.640;-0.752;2023-02-28T14:16:17;1.70;;;0.10;;
38811;SDS011;24553;51.640;-0.752;2023-02-28T14:21:20;0.00;;;0.00;;
38811;SDS011;24553;51.640;-0.752;2023-02-28T14:24:20;1.48;;;0.30;;
38811;SDS011;24553;51.640;-0.752;2023-02-28T14:32:35;2.37;;;0.57;;
38811;SDS011;24553;51.640;-0.752;2023-02-28T14:38:31;0.15;;;0.03;;
38811;SDS011;24553;51.640;-0.752;2023-02-28T14:41:00;0.52;;;0.52;;
38811;SDS011;24553;51.640;-0.752;2023-02-28T14:43:31;0.38;;;0.00;;
38811;SDS011;24553;51.640;-0.752;2023-02-28T14:45:58;0.20;;;0.00;;
38811;SDS011;24553;51.640;-0.752;2023-02-28T14:48:26;0.30;;;0.30;;
38811;SDS011;24553;51.640;-0.752;2023-02-28T14:50:58;0.17;;;0.10;;
38811;SDS011;24553;51.640;-0.752;2023-02-28T14:53:26;1.90;;;0.00;;
38811;SDS011;24553;51.640;-0.752;2023-02-28T14:55:55;0.10;;;0.00;;
38811;SDS011;24553;51.640;-0.752;2023-02-28T14:58:30;0.13;;;0.10;;
38811;SDS011;24553;51.640;-0.752;2023-02-28T15:00:59;1.65;;;0.05;;
38811;SDS011;24553;51.640;-0.752;2023-02-28T15:03:33;0.35;;;0.10;;
38811;SDS011;24553;51.640;-0.752;2023-02-28T15:06:01;1.00;;;0.22;;
38811;SDS011;24553;51.640;-0.752;2023-02-28T15:08:29;0.00;;;0.00;;
38811;SDS011;24553;51.640;-0.752;2023-02-28T15:11:01;0.45;;;0.00;;
38811;SDS011;24553;51.640;-0.752;2023-02-28T15:16:09;1.40;;;0.00;;
38811;SDS011;24553;51.640;-0.752;2023-02-28T15:18:41;1.55;;;0.00;;
38811;SDS011;24553;51.640;-0.752;2023-02-28T15:21:18;0.30;;;0.00;;
38811;SDS011;24553;51.640;-0.752;2023-02-28T15:23:50;2.17;;;0.00;;
38811;SDS011;24553;51.640;-0.752;2023-02-28T15:26:22;0.95;;;0.15;;
38811;SDS011;24553;51.640;-0.752;2023-02-28T15:28:54;0.00;;;0.00;;
38811;SDS011;24553;51.640;-0.752;2023-02-28T15:31:28;0.40;;;0.00;;
38811;SDS011;24553;51.640;-0.752;2023-02-28T15:33:57;0.15;;;0.00;;
38811;SDS011;24553;51.640;-0.752;2023-02-28T15:36:31;2.67;;;0.10;;
38811;SDS011;24553;51.640;-0.752;2023-02-28T15:38:58;1.55;;;0.00;;
38811;SDS011;24553;51.640;-0.752;2023-02-28T15:44:13;0.43;;;0.03;;
38811;SDS011;24553;51.640;-0.752;2023-02-28T15:46:42;0.80;;;0.40;;
38811;SDS011;24553;51.640;-0.752;2023-02-28T15:49:17;0.10;;;0.00;;
38811;SDS011;24553;51.640;-0.752;2023-02-28T15:51:44;0.10;;;0.10;;
38811;SDS011;24553;51.640;-0.752;2023-02-28T15:54:15;0.10;;;0.10;;
38811;SDS011;24553;51.640;-0.752;2023-02-28T15:56:46;0.43;;;0.15;;
38811;SDS011;24553;51.640;-0.752;2023-02-28T15:59:20;0.10;;;0.00;;
38811;SDS011;24553;51.640;-0.752;2023-02-28T16:02:01;0.10;;;0.00;;
38811;SDS011;24553;51.640;-0.752;2023-02-28T16:07:36;0.35;;;0.35;;
38811;SDS011;24553;51.640;-0.752;2023-02-28T16:10:04;0.57;;;0.57;;
38811;SDS011;24553;51.640;-0.752;2023-02-28T16:12:32;1.95;;;0.85;;
38811;SDS011;24553;51.640;-0.752;2023-02-28T16:15:00;1.98;;;1.00;;
38811;SDS011;24553;51.640;-0.752;2023-02-28T16:17:32;1.17;;;1.08;;
38811;SDS011;24553;51.640;-0.752;2023-02-28T16:19:59;1.20;;;1.10;;
38811;SDS011;24553;51.640;-0.752;2023-02-28T16:22:25;5.15;;;0.90;;
38811;SDS011;24553;51.640;-0.752;2023-02-28T16:24:51;2.20;;;0.15;;
38811;SDS011;24553;51.640;-0.752;2023-02-28T16:29:45;4.78;;;0.30;;
38811;SDS011;24553;51.640;-0.752;2023-02-28T16:32:12;4.00;;;0.60;;
38811;SDS011;24553;51.640;-0.752;2023-02-28T16:34:39;6.50;;;0.20;;
38811;SDS011;24553;51.640;-0.752;2023-02-28T16:37:07;1.98;;;0.00;;
38811;SDS011;24553;51.640;-0.752;2023-02-28T16:42:01;0.00;;;0.00;;
38811;SDS011;24553;51.640;-0.752;2023-02-28T16:44:31;1.25;;;0.63;;
38811;SDS011;24553;51.640;-0.752;2023-02-28T16:46:59;0.90;;;0.00;;
38811;SDS011;24553;51.640;-0.752;2023-02-28T16:49:26;0.28;;;0.00;;
38811;SDS011;24553;51.640;-0.752;2023-02-28T16:51:51;0.10;;;0.00;;
38811;SDS011;24553;51.640;-0.752;2023-02-28T16:54:18;0.40;;;0.10;;
38811;SDS011;24553;51.640;-0.752;2023-02-28T16:56:44;3.97;;;0.00;;
38811;SDS011;24553;51.640;-0.752;2023-02-28T16:59:11;1.75;;;0.03;;
38811;SDS011;24553;51.640;-0.752;2023-02-28T17:01:37;0.00;;;0.00;;
38811;SDS011;24553;51.640;-0.752;2023-02-28T17:04:02;0.00;;;0.00;;
38811;SDS011;24553;51.640;-0.752;2023-02-28T17:06:28;0.03;;;0.00;;
38811;SDS011;24553;51.640;-0.752;2023-02-28T17:08:55;1.08;;;0.00;;
38811;SDS011;24553;51.640;-0.752;2023-02-28T17:11:22;0.47;;;0.00;;
38811;SDS011;24553;51.640;-0.752;2023-02-28T17:13:48;0.35;;;0.00;;
38811;SDS011;24553;51.640;-0.752;2023-02-28T17:16:25;0.17;;;0.00;;
38811;SDS011;24553;51.640;-0.752;2023-02-28T17:18:54;0.35;;;0.17;;
38811;SDS011;24553;51.640;-0.752;2023-02-28T17:21:23;1.13;;;0.00;;
38811;SDS011;24553;51.640;-0.752;2023-02-28T17:23:48;0.60;;;0.60;;
38811;SDS011;24553;51.640;-0.752;2023-02-28T17:26:14;3.85;;;0.85;;
38811;SDS011;24553;51.640;-0.752;2023-02-28T17:28:42;0.03;;;0.00;;
38811;SDS011;24553;51.640;-0.752;2023-02-28T17:31:08;0.13;;;0.00;;
38811;SDS011;24553;51.640;-0.752;2023-02-28T17:33:34;0.30;;;0.30;;
38811;SDS011;24553;51.640;-0.752;2023-02-28T17:36:00;0.90;;;0.00;;
38811;SDS011;24553;51.640;-0.752;2023-02-28T17:38:25;4.65;;;1.23;;
38811;SDS011;24553;51.640;-0.752;2023-02-28T17:40:50;0.52;;;0.43;;